Time;durP1;ratioP1;P1;durP2;ratioP2;P2;SDS_P1;SDS_P2;PMS_P1;PMS_P2;Temp;Humidity;BMP_temperature;BMP_pressure;BME280_temperature;BME280_humidity;BME280_pressure;Samples;Min_cycle;Max_cycle;Signal;HPM_P1;HPM_P2
2022/11/15 00:00:47;;;;;;;115.97;50.35;;;8.50;99.90;;;8.77;100.00;100600.97;5114569;28;20054;-82
2022/11/15 00:03:36;;;;;;;138.50;53.20;;;8.50;99.90;;;7.87;100.00;100462.25;5115067;28;20609;-82
2022/11/15 00:06:27;;;;;;;156.02;53.08;;;8.60;99.90;;;8.33;100.00;100526.34;5114568;28;20197;-82
2022/11/15 00:09:15;;;;;;;129.90;52.78;;;8.50;99.90;;;8.55;100.00;100575.53;5114788;28;20061;-82
2022/11/15 00:12:06;;;;;;;117.00;52.10;;;8.40;99.90;;;7.03;100.00;100334.16;5114480;28;20047;-83
2022/11/15 00:14:54;;;;;;;124.30;53.47;;;8.60;99.90;;;8.95;100.00;100644.03;5116000;28;20455;-83
2022/11/15 00:17:41;;;;;;;124.85;52.92;;;8.70;99.90;;;8.91;100.00;100594.78;5115693;28;20062;-83
2022/11/15 00:20:28;;;;;;;122.60;53.00;;;8.70;99.90;;;8.91;100.00;100586.00;5115477;28;20058;-82
2022/11/15 00:23:18;;;;;;;123.15;55.17;;;8.70;99.90;;;8.94;100.00;100578.94;5115119;28;20143;-83
2022/11/15 00:26:06;;;;;;;131.27;55.97;;;8.70;99.90;;;8.54;100.00;100572.00;5114788;28;20058;-83
2022/11/15 00:28:56;;;;;;;134.40;53.78;;;8.70;99.90;;;8.95;100.00;100582.47;5114210;28;20068;-82
2022/11/15 00:31:45;;;;;;;133.85;56.42;;;8.70;99.90;;;7.88;100.00;100393.78;5114370;28;20528;-82
2022/11/15 00:34:32;;;;;;;127.25;53.90;;;8.80;99.90;;;5.93;100.00;100066.13;5114614;28;20051;-83
2022/11/15 00:37:24;;;;;;;136.18;54.28;;;8.80;99.90;;;9.09;100.00;100651.91;5114667;28;20051;-82
2022/11/15 00:40:13;;;;;;;138.85;53.63;;;8.90;99.90;;;9.04;100.00;100629.91;5114206;28;20185;-82
2022/11/15 00:43:03;;;;;;;137.02;54.20;;;8.80;99.90;;;9.20;100.00;100575.34;5116519;28;20151;-82
2022/11/15 00:45:52;;;;;;;129.05;53.10;;;8.90;99.90;;;7.79;100.00;100356.97;5117888;28;20055;-82
2022/11/15 00:48:38;;;;;;;131.48;55.10;;;9.00;99.90;;;9.24;100.00;100582.38;5117944;28;20051;-82
2022/11/15 00:51:27;;;;;;;142.70;57.13;;;9.00;99.90;;;7.97;100.00;100358.69;5117728;28;20114;-82
2022/11/15 00:54:15;;;;;;;145.48;57.05;;;9.00;99.90;;;8.92;100.00;100519.19;5117297;28;20569;-83
2022/11/15 00:57:01;;;;;;;149.90;57.75;;;9.10;99.90;;;7.60;100.00;100314.88;5117224;28;20058;-82
2022/11/15 00:59:49;;;;;;;145.73;54.80;;;9.00;99.90;;;8.26;100.00;100416.59;5117172;28;20074;-82
2022/11/15 01:02:37;;;;;;;139.45;55.70;;;9.00;99.90;;;9.21;100.00;100563.94;5117145;28;20058;-82
2022/11/15 01:05:24;;;;;;;147.20;55.97;;;9.00;99.90;;;9.01;100.00;100534.97;5116866;28;20050;-82
2022/11/15 01:08:16;;;;;;;147.00;58.25;;;9.00;99.90;;;8.89;100.00;100521.81;5116804;28;20043;-82
2022/11/15 01:11:04;;;;;;;156.63;57.47;;;9.00;99.90;;;9.11;100.00;100563.09;5117005;28;20051;-82
2022/11/15 01:13:50;;;;;;;155.50;59.08;;;8.90;99.90;;;7.89;100.00;100345.53;5116776;28;20059;-82
2022/11/15 01:16:38;;;;;;;176.93;62.58;;;8.90;99.90;;;8.82;100.00;100514.81;5116607;28;20105;-82
2022/11/15 01:19:26;;;;;;;160.18;62.60;;;8.90;99.90;;;8.50;100.00;100487.66;5116568;28;20058;-81
2022/11/15 01:22:13;;;;;;;165.68;63.75;;;8.90;99.90;;;9.27;100.00;100575.31;5116645;28;20504;-82
2022/11/15 01:25:00;;;;;;;168.85;64.28;;;9.00;99.90;;;8.68;100.00;100455.97;5116662;28;20096;-82
2022/11/15 01:27:47;;;;;;;178.88;62.70;;;9.00;99.90;;;7.06;100.00;100168.53;5116312;28;20510;-81
2022/11/15 01:30:34;;;;;;;173.98;65.28;;;9.10;99.90;;;9.31;100.00;100534.84;5116594;28;20050;-82
2022/11/15 01:33:21;;;;;;;166.70;64.85;;;9.10;99.90;;;9.14;100.00;100478.63;5116221;28;20055;-82
2022/11/15 01:36:14;;;;;;;174.73;67.20;;;9.20;99.90;;;9.48;100.00;100535.66;5116315;28;20054;-81
2022/11/15 01:39:01;;;;;;;167.52;65.28;;;9.30;99.90;;;9.62;100.00;100535.56;5116239;28;20046;-81
2022/11/15 01:41:47;;;;;;;161.13;66.03;;;9.30;99.90;;;9.64;100.00;100537.31;5116123;28;20222;-81
2022/11/15 01:44:45;;;;;;;171.13;66.55;;;9.40;99.90;;;9.04;100.00;100419.78;5116203;28;20051;-81
2022/11/15 01:47:36;;;;;;;161.07;64.82;;;9.40;99.90;;;9.47;100.00;100485.47;5116086;28;20420;-82
2022/11/15 01:50:26;;;;;;;;;;;9.50;99.90;;;8.94;100.00;100346.00;5116679;28;20073;-81
2022/11/15 01:53:15;;;;;;;162.05;66.43;;;9.60;99.90;;;9.95;100.00;100512.44;5114719;28;19926;-68
2022/11/15 01:56:06;;;;;;;156.98;64.53;;;9.70;99.90;;;10.11;100.00;100515.88;5115334;28;20055;-68
2022/11/15 01:58:56;;;;;;;166.32;65.93;;;9.90;99.90;;;10.20;100.00;100514.94;5115515;28;20051;-68
2022/11/15 02:01:44;;;;;;;161.85;61.97;;;10.00;99.90;;;10.29;100.00;100512.19;5115158;28;20543;-68
2022/11/15 02:04:35;;;;;;;140.75;62.42;;;10.10;99.90;;;10.40;100.00;100511.19;5115067;28;20062;-68
2022/11/15 02:07:23;;;;;;;151.90;67.43;;;10.20;99.90;;;10.41;100.00;100498.88;5115291;28;20425;-68
2022/11/15 02:10:14;;;;;;;180.63;68.70;;;10.30;99.90;;;10.44;100.00;100507.63;5114990;28;20109;-68
2022/11/15 02:13:02;;;;;;;143.23;65.03;;;10.30;99.90;;;10.59;100.00;100507.47;5114892;28;20050;-68
2022/11/15 02:16:00;;;;;;;151.48;65.72;;;10.40;99.90;;;10.62;100.00;100504.81;5115154;28;20062;-68
2022/11/15 02:18:56;;;;;;;167.25;66.35;;;10.50;99.90;;;10.64;100.00;100496.88;5114875;28;20050;-68
2022/11/15 02:21:52;;;;;;;149.20;64.82;;;10.50;99.90;;;10.81;100.00;100497.53;5115054;28;20101;-68
2022/11/15 02:25:02;;;;;;;158.52;65.25;;;10.70;99.90;;;10.85;100.00;100489.56;5115040;28;20409;-68
2022/11/15 02:28:29;;;;;;;140.18;63.88;;;10.70;99.90;;;11.05;100.00;100486.69;5114626;28;20058;-68
2022/11/15 02:31:29;;;;;;;127.40;61.75;;;10.80;99.90;;;11.15;100.00;100484.78;5114450;28;20038;-68
2022/11/15 02:34:26;;;;;;;138.27;61.70;;;11.00;99.90;;;11.13;100.00;100481.28;5114730;28;20076;-68
2022/11/15 02:37:18;;;;;;;122.20;61.35;;;11.00;99.90;;;11.27;100.00;100474.91;5114895;28;20516;-69
2022/11/15 02:40:12;;;;;;;115.25;58.05;;;11.10;99.90;;;11.39;100.00;100473.84;5114328;28;20066;-68
2022/11/15 02:46:15;;;;;;;;;;;11.40;99.90;;;11.67;100.00;100462.84;5114714;28;20078;-68
2022/11/15 02:49:03;;;;;;;95.93;52.08;;;11.50;99.90;;;11.71;100.00;100463.72;5114771;28;19926;-68
2022/11/15 02:51:52;;;;;;;84.80;51.03;;;11.60;99.90;;;11.83;100.00;100460.84;5114082;28;20065;-68
2022/11/15 02:54:39;;;;;;;79.15;49.22;;;11.60;99.90;;;11.99;100.00;100459.72;5114280;28;20051;-68
2022/11/15 02:57:40;;;;;;;80.32;48.55;;;11.80;99.90;;;12.11;100.00;100464.81;5114338;28;20405;-68
2022/11/15 03:00:30;;;;;;;69.05;44.97;;;11.90;99.90;;;12.18;100.00;100455.84;5114303;28;20058;-68
2022/11/15 03:03:46;;;;;;;77.35;45.97;;;11.90;99.90;;;12.29;100.00;100466.25;5114268;28;20082;-68
2022/11/15 03:06:42;;;;;;;62.97;41.72;;;12.10;99.90;;;12.37;100.00;100459.03;5113716;28;20046;-68
2022/11/15 03:09:36;;;;;;;65.55;42.88;;;12.20;99.90;;;12.44;100.00;100456.25;5114155;28;20055;-68
2022/11/15 03:12:31;;;;;;;60.35;39.28;;;12.20;99.90;;;12.46;100.00;100454.44;5114048;28;20057;-68
2022/11/15 03:15:23;;;;;;;52.42;37.58;;;12.30;99.90;;;12.51;100.00;100444.63;5114316;28;20553;-68
2022/11/15 03:18:18;;;;;;;48.75;34.05;;;12.30;99.90;;;12.57;100.00;100462.19;5113752;28;20050;-68
2022/11/15 03:21:09;;;;;;;49.40;31.58;;;12.40;99.90;;;12.61;100.00;100450.63;5113745;28;20050;-68
2022/11/15 03:24:01;;;;;;;;;;;12.40;99.90;;;12.61;100.00;100467.41;5114476;28;20177;-68
2022/11/15 03:26:50;;;;;;;53.60;31.67;;;12.40;99.90;;;12.63;100.00;100464.72;5113995;28;19953;-68
2022/11/15 03:29:41;;;;;;;47.25;28.58;;;12.40;99.90;;;12.66;100.00;100451.38;5113946;28;20181;-68
2022/11/15 03:32:31;;;;;;;42.42;29.00;;;12.40;99.90;;;12.76;100.00;100452.06;5113575;28;20151;-68
2022/11/15 03:35:21;;;;;;;;;;;12.50;99.90;;;12.80;100.00;100454.66;5113910;28;20054;-68
2022/11/15 03:38:16;;;;;;;39.97;26.45;;;12.60;99.90;;;12.83;100.00;100448.41;5114110;28;20312;-68
2022/11/15 03:41:12;;;;;;;38.50;25.92;;;12.60;99.90;;;12.83;100.00;100462.56;5114155;28;20479;-68
2022/11/15 03:44:06;;;;;;;37.03;25.15;;;12.60;99.90;;;12.82;100.00;100452.84;5113446;28;20598;-68
2022/11/15 03:47:01;;;;;;;34.67;22.73;;;12.60;99.90;;;12.89;100.00;100456.25;5113324;28;20046;-68
2022/11/15 03:49:53;;;;;;;36.08;23.27;;;12.70;99.90;;;12.85;100.00;100454.56;5113293;28;20049;-68
2022/11/15 03:52:42;;;;;;;39.15;21.98;;;12.60;99.90;;;12.89;100.00;100458.91;5113421;28;20177;-68
2022/11/15 03:55:29;;;;;;;27.90;19.50;;;12.70;99.90;;;12.91;100.00;100457.94;5113526;28;20058;-68
2022/11/15 03:58:17;;;;;;;35.75;20.00;;;12.70;99.90;;;12.91;100.00;100468.56;5113613;28;20063;-68
2022/11/15 04:01:04;;;;;;;31.70;17.88;;;12.70;99.90;;;12.65;100.00;100423.13;5113168;28;20144;-68
2022/11/15 04:03:51;;;;;;;34.85;18.30;;;12.70;99.90;;;12.90;100.00;100464.19;5113138;28;20053;-68
2022/11/15 04:06:38;;;;;;;30.60;17.27;;;12.60;99.90;;;12.97;100.00;100465.78;5113366;28;20520;-69
2022/11/15 04:09:25;;;;;;;29.55;17.33;;;12.70;99.90;;;13.03;100.00;100451.50;5113436;28;20046;-69
2022/11/15 04:12:11;;;;;;;31.05;17.95;;;12.70;99.90;;;12.27;100.00;100325.72;5113266;28;20078;-68
2022/11/15 04:15:09;;;;;;;27.27;17.13;;;12.80;99.90;;;12.40;100.00;100343.16;5113172;28;20039;-68
2022/11/15 04:17:57;;;;;;;29.92;16.10;;;12.80;99.90;;;13.07;100.00;100448.81;5115838;28;20412;-69
2022/11/15 04:26:54;;;;;;;28.55;16.85;;;12.80;99.90;;;13.05;100.00;100434.69;5117361;28;20096;-70
2022/11/15 04:29:41;;;;;;;30.27;16.55;;;12.80;99.90;;;13.11;100.00;100433.69;5117217;28;20058;-68
2022/11/15 04:32:29;;;;;;;26.58;16.52;;;12.80;99.90;;;13.13;100.00;100426.53;5117161;28;20541;-68
2022/11/15 04:35:16;;;;;;;27.70;16.27;;;12.90;99.90;;;13.15;100.00;100424.72;5116848;28;20062;-69
2022/11/15 04:38:04;;;;;;;32.58;16.38;;;12.90;99.90;;;13.17;100.00;100438.84;5116805;28;20081;-69
2022/11/15 04:40:51;;;;;;;27.23;16.27;;;12.90;99.90;;;13.19;100.00;100442.34;5116728;28;20046;-69
2022/11/15 04:43:38;;;;;;;26.13;15.55;;;12.90;99.90;;;13.15;100.00;100451.28;5116555;28;20054;-69
2022/11/15 04:46:25;;;;;;;23.50;14.68;;;12.90;99.90;;;13.15;100.00;100451.28;5116919;28;20043;-69
2022/11/15 04:49:13;;;;;;;24.48;14.82;;;12.80;99.90;;;13.10;100.00;100448.75;5116880;28;20124;-69
2022/11/15 04:52:00;;;;;;;25.73;15.57;;;12.90;99.90;;;13.16;100.00;100455.72;5116826;28;20070;-69
2022/11/15 04:54:47;;;;;;;23.67;15.52;;;12.90;99.90;;;13.19;100.00;100459.16;5116726;28;20137;-69
2022/11/15 04:57:34;;;;;;;25.67;15.27;;;12.90;99.90;;;13.22;100.00;100469.72;5116481;28;20073;-69
2022/11/15 05:00:21;;;;;;;26.13;13.65;;;12.90;99.90;;;13.11;100.00;100465.53;5116841;28;20151;-69
2022/11/15 05:06:15;;;;;;;23.83;13.95;;;12.90;99.90;;;13.10;100.00;100456.72;5085503;28;20417;-69
2022/11/15 05:09:01;;;;;;;30.98;14.30;;;12.90;99.90;;;13.13;100.00;100466.38;5116631;28;20243;-69
2022/11/15 05:11:49;;;;;;;22.30;13.73;;;12.90;99.90;;;13.09;100.00;100472.66;5116439;28;20189;-68
2022/11/15 05:14:35;;;;;;;22.38;12.48;;;12.80;99.90;;;13.08;100.00;100458.53;5116247;28;20112;-69
2022/11/15 05:17:22;;;;;;;22.02;11.93;;;12.80;99.90;;;13.02;100.00;100455.97;5116044;28;20062;-69
2022/11/15 05:20:11;;;;;;;21.98;11.80;;;12.80;99.90;;;12.99;100.00;100473.75;5116400;28;20062;-68
2022/11/15 05:23:00;;;;;;;25.70;11.88;;;12.80;99.90;;;12.97;100.00;100462.28;5115955;28;20645;-69
2022/11/15 05:25:46;;;;;;;23.40;11.95;;;12.70;99.90;;;12.93;100.00;100469.41;5116126;28;20185;-69
2022/11/15 05:28:34;;;;;;;21.38;11.02;;;12.70;99.90;;;12.94;100.00;100457.91;5116030;28;20092;-68
2022/11/15 05:31:21;;;;;;;20.25;10.68;;;12.70;99.90;;;12.94;100.00;100460.56;5115957;28;20377;-69
2022/11/15 05:34:08;;;;;;;15.82;9.75;;;12.70;99.90;;;12.90;100.00;100485.41;5115991;28;20172;-69
2022/11/15 05:36:55;;;;;;;19.42;9.70;;;12.70;99.90;;;12.86;100.00;100466.91;5115622;28;20053;-69
2022/11/15 05:39:42;;;;;;;24.70;9.90;;;12.60;99.90;;;12.92;99.88;100454.41;5116117;28;20056;-69
2022/11/15 05:42:31;;;;;;;16.48;9.50;;;12.70;99.90;;;12.94;99.33;100457.91;5115564;28;20096;-69
2022/11/15 05:45:18;;;;;;;19.23;8.70;;;12.70;99.90;;;12.92;98.77;100454.41;5115739;28;20142;-69
2022/11/15 05:48:13;;;;;;;15.48;8.63;;;12.70;99.90;;;12.92;98.20;100457.06;5115428;28;20117;-69
2022/11/15 05:51:00;;;;;;;18.20;8.68;;;12.70;99.90;;;12.89;97.60;100465.06;5115340;28;20055;-69
2022/11/15 05:53:48;;;;;;;19.45;9.20;;;12.60;99.90;;;12.73;97.51;100452.16;5115242;28;20515;-69
2022/11/15 05:56:36;;;;;;;19.25;8.95;;;12.60;99.90;;;12.85;97.22;100473.16;5115590;28;20055;-69
2022/11/15 05:59:22;;;;;;;16.83;9.32;;;12.60;99.90;;;12.68;97.24;100476.09;5115534;28;20431;-69
2022/11/15 06:02:09;;;;;;;20.67;8.57;;;12.50;99.90;;;12.74;97.35;100478.66;5115481;28;20055;-69
2022/11/15 06:04:56;;;;;;;24.00;9.82;;;12.50;99.90;;;12.69;97.29;100483.19;5115421;28;20421;-69
2022/11/15 06:07:44;;;;;;;18.23;9.25;;;12.40;99.90;;;12.62;96.93;100482.41;5115418;28;20162;-69
2022/11/15 06:10:31;;;;;;;20.30;9.13;;;12.40;99.90;;;12.70;97.03;100484.91;5115310;28;20043;-69
2022/11/15 06:13:19;;;;;;;17.08;8.55;;;12.50;99.90;;;12.69;96.33;100483.19;5115321;28;20051;-69
2022/11/15 06:16:07;;;;;;;14.52;8.65;;;12.40;99.90;;;12.62;96.22;100478.88;5115216;28;20096;-69
2022/11/15 06:18:54;;;;;;;19.13;8.38;;;12.40;99.90;;;12.68;96.00;100487.59;5114839;28;20146;-69
2022/11/15 06:21:40;;;;;;;15.10;7.82;;;12.40;99.90;;;12.62;95.65;100497.44;5115466;28;20050;-69
2022/11/15 06:24:27;;;;;;;14.98;7.80;;;12.40;99.90;;;12.58;95.50;100478.06;5115385;28;20097;-68
2022/11/15 06:27:14;;;;;;;16.20;8.65;;;12.30;99.90;;;12.58;95.19;100477.22;5114812;28;20412;-68
2022/11/15 06:30:03;;;;;;;20.13;7.90;;;12.30;99.90;;;12.60;95.12;100488.69;5114760;28;20051;-68
2022/11/15 06:32:50;;;;;;;14.80;8.23;;;12.30;99.90;;;12.36;94.93;100455.50;5114848;28;20051;-69
2022/11/15 06:35:37;;;;;;;17.33;8.45;;;12.30;99.90;;;12.47;94.92;100482.72;5115014;28;20520;-68
2022/11/15 06:38:24;;;;;;;15.77;7.57;;;12.30;99.90;;;12.46;94.78;100485.41;5114999;28;20161;-69
2022/11/15 06:41:12;;;;;;;12.63;7.40;;;12.30;99.90;;;12.55;94.24;100498.47;5114233;28;20066;-68
2022/11/15 06:43:59;;;;;;;14.25;8.45;;;12.30;99.90;;;12.51;94.03;100504.75;5114674;28;20129;-68
2022/11/15 06:46:48;;;;;;;14.75;7.82;;;12.30;99.90;;;12.43;94.30;100498.69;5114707;28;20097;-69
2022/11/15 06:49:34;;;;;;;18.58;8.50;;;12.20;99.90;;;12.51;94.12;100502.97;5114407;28;20047;-69
2022/11/15 06:52:22;;;;;;;19.00;8.50;;;12.30;99.90;;;12.42;94.28;100496.97;5114542;28;20054;-69
2022/11/15 06:55:10;;;;;;;14.55;7.85;;;12.20;99.90;;;12.40;94.50;100491.69;5114272;28;20108;-69
2022/11/15 06:57:56;;;;;;;17.63;8.75;;;12.20;99.90;;;12.31;94.84;100497.13;5114247;28;20047;-69
2022/11/15 07:00:44;;;;;;;20.33;8.77;;;12.20;99.90;;;12.31;95.10;100507.75;5114674;28;20054;-69
2022/11/15 07:03:32;;;;;;;16.70;9.10;;;12.10;99.90;;;12.38;95.25;100505.88;5114553;28;20074;-69
2022/11/15 07:06:19;;;;;;;21.52;9.48;;;12.10;99.90;;;12.34;95.28;100498.88;5114508;28;20061;-69
2022/11/15 07:09:06;;;;;;;21.73;10.55;;;12.10;99.90;;;12.06;95.42;100465.78;5114077;28;20054;-69
2022/11/15 07:11:53;;;;;;;21.70;9.88;;;12.10;99.90;;;12.31;95.94;100501.59;5114058;28;20417;-69
2022/11/15 07:14:40;;;;;;;23.45;9.52;;;12.10;99.90;;;12.30;95.83;100499.81;5114606;28;20059;-69
2022/11/15 07:17:27;;;;;;;22.52;9.80;;;12.10;99.90;;;12.24;95.90;100503.47;5114594;28;20063;-69
2022/11/15 07:20:16;;;;;;;22.05;9.30;;;12.00;99.90;;;12.25;96.17;100505.19;5114323;28;20128;-69
2022/11/15 07:23:04;;;;;;;18.42;9.70;;;12.10;99.90;;;12.16;96.70;100496.53;5113933;28;20059;-69
2022/11/15 07:25:51;;;;;;;19.33;9.20;;;12.00;99.90;;;11.95;96.97;100481.84;5114186;28;20050;-69
2022/11/15 07:28:37;;;;;;;20.48;9.07;;;11.80;99.90;;;11.90;97.23;100494.31;5113638;28;20058;-69
2022/11/15 07:31:25;;;;;;;20.60;8.88;;;11.70;99.90;;;11.96;97.32;100504.84;5113598;28;20420;-70
2022/11/15 07:34:12;;;;;;;17.95;8.90;;;11.80;99.90;;;11.87;97.17;100497.00;5113452;28;20054;-69
2022/11/15 07:37:00;;;;;;;19.00;8.50;;;11.80;99.90;;;11.95;97.15;100508.38;5113760;28;20051;-69
2022/11/15 07:39:47;;;;;;;17.38;10.02;;;11.80;99.90;;;11.93;96.31;100493.38;5113405;28;20054;-69
2022/11/15 07:45:43;;;;;;;14.90;9.68;;;11.80;99.90;;;11.78;96.59;100492.75;5113365;28;20063;-69
2022/11/15 07:48:30;;;;;;;20.42;9.68;;;11.60;99.90;;;11.68;96.64;100483.19;5113507;28;20051;-69
2022/11/15 07:51:29;;;;;;;22.80;10.25;;;11.60;99.90;;;11.51;97.53;100457.81;5112348;28;20054;-69
2022/11/15 07:54:18;;;;;;;20.88;10.52;;;11.50;99.90;;;11.48;97.77;100448.13;5113578;28;20054;-68
2022/11/15 07:57:05;;;;;;;15.40;10.27;;;11.60;99.90;;;11.77;98.19;100492.75;5113063;28;20108;-68
2022/11/15 07:59:53;;;;;;;17.23;10.43;;;11.60;99.90;;;11.84;98.37;100477.63;5113281;28;20428;-68
2022/11/15 08:02:40;;;;;;;17.02;9.93;;;11.70;99.90;;;12.05;98.40;100470.22;5113246;28;20058;-68
2022/11/15 08:05:28;;;;;;;19.00;9.88;;;11.80;99.90;;;12.26;97.42;100458.34;5113071;28;20412;-69
2022/11/15 08:08:15;;;;;;;15.57;8.50;;;12.10;99.90;;;12.48;96.24;100471.22;5113138;28;20047;-69
2022/11/15 08:11:03;;;;;;;11.95;8.35;;;12.30;99.90;;;12.52;94.66;100485.28;5113460;28;20357;-70
2022/11/15 08:13:51;;;;;;;15.27;8.43;;;12.40;99.90;;;12.48;94.47;100465.03;5112913;28;20506;-70
2022/11/15 08:16:38;;;;;;;14.35;9.43;;;12.30;99.90;;;12.35;94.28;100482.94;5112798;28;20050;-68
2022/11/15 08:19:25;;;;;;;15.38;8.35;;;12.30;99.90;;;12.35;94.66;100471.47;5112854;28;20054;-70
2022/11/15 08:22:11;;;;;;;15.32;8.60;;;12.20;99.90;;;12.26;94.52;100484.88;5112753;28;20043;-69
2022/11/15 08:24:58;;;;;;;14.02;8.38;;;12.10;99.90;;;12.23;94.69;100469.88;5112791;28;20421;-68
2022/11/15 08:27:47;;;;;;;21.23;8.80;;;12.10;99.90;;;11.93;94.88;100443.00;5113091;28;20404;-69
2022/11/15 08:30:38;;;;;;;13.18;8.07;;;12.00;99.90;;;11.97;94.48;100455.31;5112732;28;20054;-69
2022/11/15 08:33:25;;;;;;;;;;;11.90;99.90;;;12.05;94.62;100450.78;5113350;28;20515;-68
2022/11/15 08:36:16;;;;;;;17.23;8.70;;;11.90;99.90;;;11.98;95.28;100449.13;5112458;28;19939;-68
2022/11/15 08:39:04;;;;;;;12.57;8.85;;;11.80;99.90;;;12.16;95.90;100448.78;5112928;28;20498;-68
2022/11/15 08:41:50;;;;;;;15.68;10.07;;;11.90;99.90;;;12.32;95.21;100451.16;5112586;28;20112;-68
2022/11/15 08:44:39;;;;;;;17.17;10.32;;;12.10;99.90;;;12.28;95.16;100454.78;5112544;28;20444;-69
2022/11/15 08:47:26;;;;;;;15.98;9.70;;;12.10;99.90;;;12.40;94.35;100445.72;5113121;28;20070;-69
2022/11/15 08:50:13;;;;;;;14.75;9.88;;;12.20;99.90;;;12.73;93.63;100447.72;5112828;28;20051;-69
2022/11/15 08:53:06;;;;;;;15.32;9.65;;;12.50;99.90;;;12.70;91.83;100402.66;5112559;28;20051;-69
2022/11/15 08:55:53;;;;;;;14.98;9.80;;;12.80;99.90;;;13.10;91.54;100447.88;5112631;28;20420;-69
2022/11/15 08:58:42;;;;;;;12.48;8.70;;;12.90;99.90;;;13.45;90.09;100461.25;5112506;28;20058;-69
2022/11/15 09:01:30;;;;;;;18.23;8.95;;;13.20;99.90;;;13.66;89.27;100487.34;5112405;28;20420;-69
2022/11/15 09:04:18;;;;;;;16.02;9.43;;;13.50;99.90;;;13.45;87.84;100467.41;5115852;28;20136;-69
2022/11/15 09:07:05;;;;;;;13.55;8.95;;;13.40;99.90;;;13.60;87.59;100468.88;5116266;28;20047;-69
2022/11/15 09:09:52;;;;;;;15.25;8.63;;;13.40;99.90;;;13.54;86.81;100464.56;5116162;28;20121;-69
2022/11/15 09:12:39;;;;;;;12.30;8.65;;;13.40;99.90;;;13.54;87.10;100461.91;5116655;28;20054;-69
2022/11/15 09:15:26;;;;;;;12.73;8.40;;;13.40;99.90;;;13.41;86.56;100481.69;5116022;28;20416;-69
2022/11/15 09:18:14;;;;;;;14.02;8.20;;;13.30;99.90;;;13.30;87.32;100451.84;5116069;28;20043;-69
2022/11/15 09:21:02;;;;;;;13.60;8.63;;;13.20;99.90;;;13.34;87.11;100473.88;5115866;28;20510;-69
2022/11/15 09:23:52;;;;;;;14.98;9.35;;;13.20;99.90;;;13.16;87.26;100456.56;5116007;28;20050;-69
2022/11/15 09:26:39;;;;;;;16.20;8.45;;;13.10;99.90;;;13.40;86.47;100469.31;5115793;28;20051;-69
2022/11/15 09:29:26;;;;;;;17.73;9.75;;;13.30;99.90;;;13.41;87.25;100473.72;5115965;28;20054;-69
2022/11/15 09:32:13;;;;;;;11.75;9.13;;;13.20;99.90;;;13.44;86.75;100454.19;5115863;28;20189;-69
2022/11/15 09:35:02;;;;;;;12.15;8.57;;;13.30;99.90;;;13.42;86.45;100445.38;5116146;28;20051;-69
2022/11/15 09:37:49;;;;;;;13.88;8.82;;;13.30;99.90;;;13.40;86.04;100469.31;5115795;28;20042;-69
2022/11/15 09:40:42;;;;;;;16.15;8.13;;;13.30;99.90;;;13.43;85.87;100469.25;5115891;28;20058;-69
2022/11/15 09:43:40;;;;;;;15.15;8.25;;;13.30;99.90;;;13.50;85.27;100457.59;5115655;28;20140;-69
2022/11/15 09:46:39;;;;;;;17.60;8.20;;;13.30;99.90;;;13.27;84.56;100441.28;5115845;28;20059;-69
2022/11/15 09:49:42;;;;;;;17.45;8.35;;;13.20;99.90;;;13.30;85.33;100433.25;5052576;28;20136;-69
2022/11/15 09:52:28;;;;;;;15.00;8.65;;;13.10;99.90;;;13.61;84.92;100421.91;5093738;28;20405;-69
2022/11/15 09:54:56;;;;;;;11.90;8.45;;;13.40;99.90;;;13.68;84.37;100423.50;5115378;28;20043;-69
2022/11/15 09:57:34;;;;;;;14.77;8.77;;;13.50;99.90;;;13.57;84.99;100414.00;5115573;28;20066;-69
2022/11/15 10:00:21;;;;;;;17.02;9.43;;;13.50;99.90;;;13.23;86.83;100428.97;5115408;28;20127;-70
2022/11/15 10:03:14;;;;;;;14.35;8.73;;;13.10;99.90;;;13.16;86.56;100421.19;5115375;28;20466;-69
2022/11/15 10:05:45;;;;;;;14.10;7.72;;;13.00;99.90;;;13.29;85.96;100423.53;5115294;28;20123;-69
2022/11/15 10:08:41;;;;;;;12.48;8.40;;;13.20;99.90;;;13.14;86.07;100429.16;5115809;28;20050;-70
2022/11/15 10:11:12;;;;;;;12.85;8.43;;;13.00;99.90;;;13.37;86.70;100421.59;5115149;28;20134;-69
2022/11/15 10:14:05;;;;;;;15.13;7.40;;;13.20;99.90;;;13.63;85.07;100436.03;5114777;28;20043;-69
2022/11/15 10:17:12;;;;;;;12.27;8.10;;;13.40;99.90;;;13.58;85.79;100412.22;5114853;28;20443;-69
2022/11/15 10:19:54;;;;;;;12.98;7.55;;;13.40;99.90;;;13.73;84.63;100403.00;5115326;28;20044;-69
2022/11/15 10:22:29;;;;;;;11.70;6.75;;;13.50;99.90;;;13.73;84.08;100361.34;5115110;28;20506;-69
2022/11/15 10:25:23;;;;;;;11.38;6.90;;;13.80;99.90;;;13.86;82.18;100407.13;5115078;28;20042;-69
2022/11/15 10:27:58;;;;;;;11.98;7.18;;;13.70;99.90;;;14.04;83.11;100388.91;5096764;28;20047;-69
2022/11/15 10:30:35;;;;;;;18.17;8.65;;;13.90;99.90;;;14.07;82.33;100386.13;5115041;28;20090;-69
2022/11/15 10:33:18;;;;;;;12.85;7.15;;;13.90;99.90;;;13.82;83.33;100392.16;5114907;28;20036;-69
2022/11/15 10:35:46;;;;;;;13.35;7.47;;;13.70;99.90;;;13.48;84.24;100370.84;5114643;28;20047;-68
2022/11/15 10:38:15;;;;;;;12.20;6.70;;;13.40;99.90;;;13.40;84.27;100352.44;5114521;28;20047;-69
2022/11/15 10:40:44;;;;;;;13.20;7.00;;;13.20;99.90;;;13.28;84.28;100358.03;5114817;28;20051;-69
2022/11/15 10:43:17;;;;;;;16.80;6.70;;;13.20;99.90;;;13.50;83.92;100406.22;5115331;28;20047;-69
2022/11/15 10:45:47;;;;;;;11.60;6.18;;;13.30;99.90;;;13.30;83.47;100364.19;5114482;28;20047;-69
2022/11/15 10:48:33;;;;;;;16.80;6.80;;;13.20;99.90;;;13.30;83.98;100366.84;5114411;28;20131;-69
2022/11/15 10:51:02;;;;;;;11.90;5.80;;;13.10;99.90;;;13.37;83.73;100362.25;5114732;28;20115;-68
2022/11/15 10:53:39;;;;;;;14.13;6.13;;;13.20;99.90;;;13.17;83.48;100381.31;5114180;28;20032;-69
2022/11/15 10:56:15;;;;;;;13.98;5.97;;;13.10;99.90;;;13.20;84.60;100352.03;5114205;28;20071;-69
2022/11/15 10:58:51;;;;;;;14.80;6.40;;;13.00;99.90;;;13.39;84.37;100358.63;5114476;28;20063;-68
2022/11/15 11:01:22;;;;;;;11.80;5.82;;;13.20;99.90;;;13.21;83.59;100352.91;5114568;28;20048;-69
2022/11/15 11:04:01;;;;;;;12.90;5.95;;;13.10;99.90;;;13.11;83.95;100338.97;5114168;28;20043;-70
2022/11/15 11:06:30;;;;;;;14.05;6.13;;;13.00;99.90;;;13.01;84.02;100344.47;5113907;28;20560;-69
2022/11/15 11:09:01;;;;;;;9.23;6.13;;;12.90;99.90;;;13.02;83.87;100348.88;5114153;28;20047;-69
2022/11/15 11:11:48;;;;;;;11.75;5.70;;;12.80;99.90;;;12.90;84.72;100350.03;5114078;28;20044;-68
2022/11/15 11:14:25;;;;;;;10.40;5.38;;;12.80;99.90;;;12.83;84.08;100329.88;5113820;28;20043;-69
2022/11/15 11:17:02;;;;;;;11.80;5.32;;;12.70;99.90;;;12.94;84.77;100313.69;5113704;28;20071;-70
2022/11/15 11:19:49;;;;;;;11.27;5.18;;;12.70;99.90;;;12.94;84.51;100329.59;5113638;28;20050;-69
2022/11/15 11:22:26;;;;;;;10.93;5.38;;;12.80;99.90;;;13.06;85.03;100305.47;5095585;28;20138;-69
2022/11/15 11:25:08;;;;;;;15.38;5.50;;;12.80;99.90;;;13.00;84.56;100301.16;5095313;28;20505;-69
2022/11/15 11:27:57;;;;;;;12.10;5.15;;;12.80;99.90;;;13.19;83.90;100302.47;5113774;28;20131;-69
2022/11/15 11:30:43;;;;;;;12.48;5.22;;;13.00;99.90;;;13.26;82.87;100308.50;5095381;28;20050;-69
2022/11/15 11:33:18;;;;;;;10.82;4.78;;;13.10;99.90;;;12.86;83.44;100305.00;5113385;28;20043;-69
2022/11/15 11:36:03;;;;;;;10.75;4.63;;;12.90;99.90;;;13.14;83.16;100290.22;5113372;28;20044;-69
2022/11/15 11:39:07;;;;;;;14.30;4.55;;;13.00;99.90;;;13.15;84.73;100287.53;5113812;28;20496;-69
2022/11/15 11:41:56;;;;;;;11.93;5.28;;;13.00;99.90;;;13.08;83.07;100277.97;5071278;28;20406;-69